עמוד ראשי
METAR-TAF:

METAR-TAF

שדות תעופה :

Kaunakakai, הוואי, ארצות הברית

קו רוחב: 21-09N, קו אורך: 157-06W, גובה: 138מטר

תצפית מזג אוויר נוכחית

הדו"ח נערך לפני 38דקות, בשעה 10:54 UTC
רוח 15קשר מכיוון מזרח/צפון-מזרח עם משבים עד 23קשר
טמפרטורת 23 צלסיוס
לחות 73%
לחץ 1019 hPa
ראות: 16.1קילומטר
שמיים נקיים

METAR: PHMK 151054Z AUTO 07015G23KT 10SM CLR 23/18 A3008 RMK AO2 SLP187 T02330183 TSNO

זמן: 01:32 (11:32 UTC)

תחזית

הדו"ח נערך לפני 6 שעות ו 3דקות, בשעה 05:29 UTC
תחזית בתוקף מ 15 ב 06 UTC עד 16 ב 06 UTC
רוח 12קשר מכיוון צפון-מזרח עם משבים עד 22קשר
ראות: 10קילומטר
עננים פזורים בגובה 4500רגל
מ 15 ב 0800UTC
רוח 10קשר מכיוון צפון-מזרח עם משבים עד 16קשר
ראות: 10קילומטר
עננים פזורים בגובה 4500רגל
מ 15 ב 1800UTC
רוח 12קשר מכיוון צפון-מזרח עם משבים עד 22קשר
ראות: 10קילומטר
עננים פזורים בגובה 4500רגל
מ 16 ב 0000UTC
רוח 16קשר מכיוון צפון-מזרח עם משבים עד 28קשר
ראות: 10קילומטר
עננים פזורים בגובה 4500רגל

TAF: PHMK 150529Z 1506/1606 05012G22KT P6SM SCT045 FM150800 05010G16KT P6SM SCT045 FM151800 05012G22KT P6SM SCT045 FM160000 05016G28KT P6SM SCT045

תצפיות ותחזיות מזג אוויר לגבי יותר מ- 4,000 שדות תעופה ברחבי העולם. דוחות METAR ו- TAF.

התחנות הזמינות מסומנות בנקודות צהובות ואדומות על גבי המפה.

העבר את העכבר לנקודה הצבעונית על מנת לראות את שם התחנה.

לאחר מכן, לחץ כדי לראות את תוכן ואת תחזיות מזג האוויר.

כדי לשנות את המפה: לחץ על הכפתורים הירוקים עם הפלוס השחור כדי להתקרב; על הכפתור הירוק עם המקף כדי להתרחק; או בחיצים הירוקים למפות סמוכות.


METAR-TAF: